CYLW

Kelowna International Airport

Kelowna, British Columbia, Canada
TAF CYLW 251238Z 2513/2601 VRB03KT P6SM SKC BECMG 2516/2518 35010G20KT RMK FCST BASED ON AUTO OBS. NXT FCST BY 251900Z
Issued Valid From Valid To
Apr-25 @ 12:38 UTC
(5 hours ago)
Apr-25 @ 13:00 UTC
(5 hours ago)
Apr-26 @ 01:00 UTC
(in 7 hours)
Expired Click to View Apr-25 @ 13:00 to Apr-25 @ 16:00
TAF CYLW 251238Z 2513/2601 VRB03KT P6SM SKC
Wind Visibility Clouds
Variable at 3 knots Greater than 6 miles
  • Clear skies
Becoming Apr-25 @ 16:00 to Apr-26 @ 01:00
BECMG 2516/2518 35010G20KT RMK FCST BASED ON AUTO OBS. NXT FCST BY 251900Z
Wind Visibility Clouds
350° at 10 knots
 Gusting to 20 knots
Greater than 6 miles
  • Clear skies
TAF CYLW 251238Z 2513/2601 VRB03KT P6SM SKC BECMG 2516/2518 35010G20KT RMK FCST BASED ON AUTO OBS. NXT FCST BY 251900Z
Issued Apr-25 @ 12:38 UTC
(5 hours ago)
Valid From Apr-25 @ 13:00 UTC
(5 hours ago)
Valid To Apr-26 @ 01:00 UTC
(in 7 hours)
Apr-25 @ 13:00 - Apr-25 @ 16:00
Wind Visibility
Variable at 3 knots Greater than 6 miles
Clouds
  • Clear skies
Becoming Apr-25 @ 16:00 - Apr-26 @ 01:00
Wind Visibility
350° at 10 knots
 Gusting to 20 knots
Greater than 6 miles
Clouds
  • Clear skies